Ahlsell — OYZH — position and weather

sailwx.info

Track history (hours):
 
Tides and Currents Weather Stations Pressure Air Temp Water Temp Dewpoint Dewpoint Depression Visibility Wind Speed Wind Dir Waves Ship Positions

Ahlsell

Last reported at 2017-Jan-17 18:33 UTC. Time now 2017-Jan-17 19:23 UTC.
Position N 55°06' E 014°41'.

Length 40 m; draft 4 m.

Type: Dredging. MMSI: 219000852.

Date/timePositionNaut miles runAvg speedWind from/ knotsBaromVisibWave heightAir tempDewpointWater temp
2017-Jan-17 18:33N 55°06' E 014°41'0 0.0
2017-Jan-17 17:33N 55°06' E 014°41'0 0.0
2017-Jan-17 16:33N 55°06' E 014°41'2 2.0
2017-Jan-17 15:33N 55°04' E 014°41'0 0.0
2017-Jan-17 14:33N 55°04' E 014°41'0 0.0
2017-Jan-17 13:33N 55°04' E 014°41'2 2.0
2017-Jan-17 12:33N 55°06' E 014°41'0 0.0
2017-Jan-17 11:33N 55°06' E 014°41'0 0.0
2017-Jan-17 10:33N 55°06' E 014°41'0 0.0
2017-Jan-17 09:33N 55°06' E 014°41'0 0.0
2017-Jan-17 08:33N 55°06' E 014°41'0 0.0
2017-Jan-17 07:33N 55°06' E 014°41'1 1.3
2017-Jan-17 06:33N 55°05' E 014°41'1 0.7
2017-Jan-17 05:33N 55°04' E 014°41'0 0.0
2017-Jan-17 04:33N 55°04' E 014°41'0 0.0
2017-Jan-17 03:33N 55°04' E 014°41'2 1.9
2017-Jan-17 02:33N 55°06' E 014°41'0 0.0
2017-Jan-17 01:33N 55°06' E 014°41'1 0.9
2017-Jan-17 00:33N 55°05' E 014°41'1 1.2
2017-Jan-16 23:33N 55°04' E 014°41'0 0.0
2017-Jan-16 22:33N 55°04' E 014°41'0 0.0
2017-Jan-16 21:33N 55°04' E 014°41'0 0.0
2017-Jan-16 20:33N 55°04' E 014°41'2 1.9
2017-Jan-16 19:34N 55°06' E 014°41'0 0.0
2017-Jan-16 18:33N 55°06' E 014°41'0 0.0
2017-Jan-16 17:33N 55°06' E 014°41'2 1.9
2017-Jan-16 16:33N 55°04' E 014°41'0 0.0
2017-Jan-16 15:33N 55°04' E 014°41'0 0.0
2017-Jan-16 14:33N 55°04' E 014°41'0 0.0
2017-Jan-16 13:33N 55°04' E 014°41'2 1.8
2017-Jan-16 12:33N 55°06' E 014°41'0 0.1
2017-Jan-16 11:33N 55°06' E 014°41'1 1.2
2017-Jan-16 10:33N 55°05' E 014°41'8 7.5
2017-Jan-16 09:33N 54°58' E 014°48'2 2.4
2017-Jan-16 08:33N 54°56' E 014°50'4 3.9
2017-Jan-16 07:33N 54°59' E 014°46'7 7.1
2017-Jan-16 06:33N 55°06' E 014°41'0 0.0
2017-Jan-16 05:33N 55°06' E 014°41'0 0.0
2017-Jan-16 04:33N 55°06' E 014°41'0 0.0
2017-Jan-16 03:33N 55°06' E 014°41'0 0.0
2017-Jan-16 02:33N 55°06' E 014°41'0 0.0
2017-Jan-16 01:33N 55°06' E 014°41'0 0.0
2017-Jan-16 00:33N 55°06' E 014°41'0 0.0
2017-Jan-15 23:33N 55°06' E 014°41'0 0.0
2017-Jan-15 22:33N 55°06' E 014°41'0 0.0
2017-Jan-15 21:33N 55°06' E 014°41'0 0.0
2017-Jan-15 20:33N 55°06' E 014°41'0 0.0
2017-Jan-15 19:33N 55°06' E 014°41'0 0.0
2017-Jan-15 18:33N 55°06' E 014°41'0 0.0
2017-Jan-15 17:33N 55°06' E 014°41'0 0.1
2017-Jan-15 16:33N 55°06' E 014°41'6 6.1
2017-Jan-15 15:33N 54°60' E 014°44'5 4.9
2017-Jan-15 14:33N 54°56' E 014°50'2 2.0
2017-Jan-15 13:33N 54°58' E 014°48'8 8.0
2017-Jan-15 12:33N 55°05' E 014°41'1 1.2
2017-Jan-15 11:33N 55°06' E 014°41'0 0.0
2017-Jan-15 10:33N 55°06' E 014°41'6 5.8
2017-Jan-15 09:33N 55°00' E 014°44'5 5.4
2017-Jan-15 08:33N 54°56' E 014°50'1 0.8
2017-Jan-15 07:33N 54°57' E 014°49'8 8.1
2017-Jan-15 06:33N 55°04' E 014°42'2 2.1
2017-Jan-15 05:33N 55°06' E 014°41'0 0.0
2017-Jan-15 04:33N 55°06' E 014°41'0 0.0
2017-Jan-15 03:33N 55°06' E 014°41'0 0.0
2017-Jan-15 02:33N 55°06' E 014°41'0 0.0
2017-Jan-15 01:33N 55°06' E 014°41'0 0.0
2017-Jan-15 00:33N 55°06' E 014°41'0 0.0
2017-Jan-14 23:33N 55°06' E 014°41'0 0.0
2017-Jan-14 22:33N 55°06' E 014°41'0 0.0
2017-Jan-14 21:33N 55°06' E 014°41'0 0.0
2017-Jan-14 20:33N 55°06' E 014°41'0 0.0
2017-Jan-14 19:33N 55°06' E 014°41'0 0.0
2017-Jan-14 18:33N 55°06' E 014°41'0 0.0
2017-Jan-14 17:33N 55°06' E 014°41'4 3.8
2017-Jan-14 16:33N 55°02' E 014°42'6 6.2
2017-Jan-14 15:33N 54°57' E 014°48'1 1.3
2017-Jan-14 14:33N 54°56' E 014°50'2 1.7
2017-Jan-14 13:33N 54°58' E 014°48'8 7.6
2017-Jan-14 12:33N 55°04' E 014°42'2 1.7
2017-Jan-14 11:33N 55°06' E 014°41'0 0.0
2017-Jan-14 10:33N 55°06' E 014°41'6 5.6
2017-Jan-14 09:33N 55°01' E 014°44'6 5.6
2017-Jan-14 08:33N 54°56' E 014°50'1 1.3
2017-Jan-14 07:33N 54°57' E 014°49'8 8.0
2017-Jan-14 06:33N 55°04' E 014°42'2 1.8
2017-Jan-14 05:33N 55°06' E 014°41'0 0.0
2017-Jan-14 04:33N 55°06' E 014°41'0 0.0
2017-Jan-14 03:33N 55°06' E 014°41'0 0.0
2017-Jan-13 23:33N 55°06' E 014°41'0 0.0
2017-Jan-13 22:33N 55°06' E 014°41'0 0.0
2017-Jan-13 21:33N 55°06' E 014°41'0 0.0
2017-Jan-13 20:33N 55°06' E 014°41'0 0.0
2017-Jan-13 19:33N 55°06' E 014°41'0 0.0
2017-Jan-13 18:33N 55°06' E 014°41'0 0.0
2017-Jan-13 17:33N 55°06' E 014°41'4 3.8
2017-Jan-13 16:33N 55°02' E 014°41'7 6.6
2017-Jan-13 15:33N 54°58' E 014°50'1 0.8
2017-Jan-13 14:33N 54°57' E 014°51'5 5.2
2017-Jan-13 13:33N 55°00' E 014°44'6 5.7
2017-Jan-13 12:33N 55°06' E 014°41'0 0.0
2017-Jan-13 11:33N 55°06' E 014°41'0 0.0
2017-Jan-13 10:34N 55°06' E 014°41'6 6.2
2017-Jan-13 09:33N 55°00' E 014°45'4 4.5
2017-Jan-13 08:33N 54°57' E 014°50'4 3.6
2017-Jan-13 07:33N 55°00' E 014°47'7 6.5
2017-Jan-13 06:33N 55°06' E 014°41'0 0.3
2017-Jan-13 05:33N 55°06' E 014°41'0 0.0
2017-Jan-13 04:33N 55°06' E 014°41'0 0.0
2017-Jan-13 03:33N 55°06' E 014°41'0 0.0
2017-Jan-13 02:33N 55°06' E 014°41'0 0.0
2017-Jan-13 01:33N 55°06' E 014°41'0 0.0
2017-Jan-13 00:33N 55°06' E 014°41'0 0.0
2017-Jan-12 23:33N 55°06' E 014°41'0 0.0
2017-Jan-12 22:33N 55°06' E 014°41'0 0.0
2017-Jan-12 21:33N 55°06' E 014°41'0 0.0
2017-Jan-12 20:33N 55°06' E 014°41'0 0.0
2017-Jan-12 19:33N 55°06' E 014°41'0 0.0
2017-Jan-12 18:33N 55°06' E 014°41'0 0.0
2017-Jan-12 17:33N 55°06' E 014°41'0 0.0
2017-Jan-12 16:33N 55°06' E 014°41'0 0.0
2017-Jan-12 15:33N 55°06' E 014°41'0 0.0
2017-Jan-12 14:33N 55°06' E 014°41'0 0.0
2017-Jan-12 13:33N 55°06' E 014°41'0 0.0
2017-Jan-12 12:33N 55°06' E 014°41'0 0.0
2017-Jan-12 11:33N 55°06' E 014°41'0 0.0
2017-Jan-12 10:33N 55°06' E 014°41'0 0.0
2017-Jan-12 09:33N 55°06' E 014°41'0 0.0
2017-Jan-12 08:33N 55°06' E 014°41'0 0.0
2017-Jan-12 07:33N 55°06' E 014°41'0 0.0
2017-Jan-12 06:33N 55°06' E 014°41'0 0.0
2017-Jan-12 05:33N 55°06' E 014°41'0 0.0
2017-Jan-12 04:33N 55°06' E 014°41'0 0.0
2017-Jan-12 03:33N 55°06' E 014°41'0 0.0
2017-Jan-12 02:33N 55°06' E 014°41'0 0.0
2017-Jan-12 01:33N 55°06' E 014°41'0 0.0
2017-Jan-12 00:33N 55°06' E 014°41'0 0.0
2017-Jan-11 23:33N 55°06' E 014°41'0 0.0
2017-Jan-11 22:33N 55°06' E 014°41'0 0.0
2017-Jan-11 21:33N 55°06' E 014°41'0 0.0
2017-Jan-11 20:33N 55°06' E 014°41'0 0.0
2017-Jan-11 19:33N 55°06' E 014°41'0 0.0
2017-Jan-11 18:33N 55°06' E 014°41'0 0.0
2017-Jan-11 17:33N 55°06' E 014°41'0 0.0
2017-Jan-11 16:33N 55°06' E 014°41'0 0.0
2017-Jan-11 15:33N 55°06' E 014°41'0 0.0
2017-Jan-11 14:33N 55°06' E 014°41'0 0.0
2017-Jan-11 13:33N 55°06' E 014°41'0 0.0
2017-Jan-11 12:33N 55°06' E 014°41'0 0.0
2017-Jan-11 11:34N 55°06' E 014°41'0 0.0
2017-Jan-11 10:33N 55°06' E 014°41'0 0.0
2017-Jan-11 09:33N 55°06' E 014°41'0 0.0
2017-Jan-11 08:34N 55°06' E 014°41'0 0.0
2017-Jan-11 07:33N 55°06' E 014°41'0 0.0
2017-Jan-11 06:33N 55°06' E 014°41'0 0.0
2017-Jan-11 05:33N 55°06' E 014°41'0 0.0
2017-Jan-11 04:33N 55°06' E 014°41'0 0.0
2017-Jan-11 03:33N 55°06' E 014°41'0 0.0
2017-Jan-11 02:33N 55°06' E 014°41'0 0.0
2017-Jan-11 01:33N 55°06' E 014°41'0 0.0
2017-Jan-11 00:34N 55°06' E 014°41'0 0.0
2017-Jan-10 23:33N 55°06' E 014°41'0 0.0
2017-Jan-10 22:33N 55°06' E 014°41'0 0.0
2017-Jan-10 21:34N 55°06' E 014°41'0 0.0
2017-Jan-10 20:34N 55°06' E 014°41'0 0.0
2017-Jan-10 19:33N 55°06' E 014°41'0 0.0
2017-Jan-10 18:33N 55°06' E 014°41'0 0.0
2017-Jan-10 17:34N 55°06' E 014°41'0 0.0
2017-Jan-10 16:33N 55°06' E 014°41'0 0.0
2017-Jan-10 15:33N 55°06' E 014°41'0 0.0
2017-Jan-10 14:33N 55°06' E 014°41'0 0.0
2017-Jan-10 13:33N 55°06' E 014°41'0 0.0
2017-Jan-10 12:33N 55°06' E 014°41'0 0.0
2017-Jan-10 11:33N 55°06' E 014°41'0 0.0
2017-Jan-10 10:33N 55°06' E 014°41'0 0.0
2017-Jan-10 09:33N 55°06' E 014°41'0 0.0
2017-Jan-10 08:34N 55°06' E 014°41'0 0.0
2017-Jan-10 07:33N 55°06' E 014°41'0 0.0
2017-Jan-10 06:33N 55°06' E 014°41'0 0.0
2017-Jan-10 05:34N 55°06' E 014°41'0 0.0
2017-Jan-10 04:33N 55°06' E 014°41'0 0.0
2017-Jan-10 03:34N 55°06' E 014°41'0 0.0
2017-Jan-10 02:33N 55°06' E 014°41'0 0.0
2017-Jan-10 01:33N 55°06' E 014°41'0 0.0
2017-Jan-10 00:33N 55°06' E 014°41'0 0.0
2017-Jan-09 23:33N 55°06' E 014°41'0 0.0
2017-Jan-09 22:34N 55°06' E 014°41'0 0.0
2017-Jan-09 21:33N 55°06' E 014°41'0 0.0
2017-Jan-09 20:34N 55°06' E 014°41'0 0.0
2017-Jan-09 19:33N 55°06' E 014°41'0 0.0
2017-Jan-09 18:33N 55°06' E 014°41'0 0.0
2017-Jan-09 17:33N 55°06' E 014°41'1 1.1
2017-Jan-09 16:33N 55°05' E 014°40'2 2.3
2017-Jan-09 15:33N 55°03' E 014°40'0 0.0
2017-Jan-09 14:34N 55°03' E 014°40'0 0.1
2017-Jan-09 13:33N 55°03' E 014°41'3 3.3
2017-Jan-09 12:33N 55°06' E 014°41'0 0.0
2017-Jan-09 11:34N 55°06' E 014°41'1 0.7
2017-Jan-09 10:33N 55°05' E 014°41'3 2.6
2017-Jan-09 09:33N 55°03' E 014°41'0 0.0
2017-Jan-09 08:33N 55°03' E 014°41'0 0.0
2017-Jan-09 07:34N 55°03' E 014°41'3 3.1
2017-Jan-09 06:33N 55°06' E 014°41'0 0.1
2017-Jan-09 05:33N 55°06' E 014°41'0 0.0
2017-Jan-09 04:33N 55°06' E 014°41'0 0.0
2017-Jan-09 03:33N 55°06' E 014°41'0 0.0
2017-Jan-09 02:33N 55°06' E 014°41'0 0.0
2017-Jan-09 01:33N 55°06' E 014°41'0 0.0
2017-Jan-09 00:33N 55°06' E 014°41'0 0.0
2017-Jan-08 23:33N 55°06' E 014°41'0 0.0
2017-Jan-08 22:33N 55°06' E 014°41'0 0.0
2017-Jan-08 21:33N 55°06' E 014°41'0 0.0
2017-Jan-08 20:33N 55°06' E 014°41'0 0.0
2017-Jan-08 19:33N 55°06' E 014°41'0 0.0
2017-Jan-08 18:33N 55°06' E 014°41'0 0.0
2017-Jan-08 17:33N 55°06' E 014°41'0 0.0
2017-Jan-08 16:34N 55°06' E 014°41'0 0.0
2017-Jan-08 15:34N 55°06' E 014°41'2 1.9
2017-Jan-08 14:34N 55°04' E 014°41'0 0.0
2017-Jan-08 13:33N 55°04' E 014°41'0 0.0
2017-Jan-08 12:33N 55°04' E 014°41'0 0.0
2017-Jan-08 11:34N 55°04' E 014°41'2 1.9
2017-Jan-08 10:33N 55°06' E 014°41'0 0.0
2017-Jan-08 09:33N 55°06' E 014°41'2 2.0
2017-Jan-08 08:33N 55°04' E 014°41'0 0.0
2017-Jan-08 07:33N 55°04' E 014°41'0 0.0
2017-Jan-08 06:34N 55°04' E 014°41'2 1.9
2017-Jan-08 05:33N 55°06' E 014°41'0 0.0
2017-Jan-08 04:33N 55°06' E 014°41'0 0.0
2017-Jan-08 03:34N 55°06' E 014°41'0 0.0
2017-Jan-08 02:34N 55°06' E 014°41'0 0.0
2017-Jan-08 01:33N 55°06' E 014°41'0 0.0
2017-Jan-08 00:33N 55°06' E 014°41'0 0.0
2017-Jan-07 23:33N 55°06' E 014°41'0 0.0
2017-Jan-07 22:33N 55°06' E 014°41'0 0.0
2017-Jan-07 21:33N 55°06' E 014°41'0 0.0
2017-Jan-07 20:33N 55°06' E 014°41'0 0.0
2017-Jan-07 19:33N 55°06' E 014°41'0 0.0
2017-Jan-07 18:34N 55°06' E 014°41'  
Track history (hours):
 
Tides and Currents Weather Stations Pressure Air Temp Water Temp Dewpoint Dewpoint Depression Visibility Wind Speed Wind Dir Waves Ship Positions

Ahlsell

Last reported at 2017-Jan-17 18:33 UTC. Time now 2017-Jan-17 19:23 UTC.
Position N 55°06' E 014°41'.

Length 40 m; draft 4 m.

Type: Dredging. MMSI: 219000852.

Date/timePositionNaut miles runAvg speedWind from/ knotsBaromVisibWave heightAir tempDewpointWater temp
2017-Jan-17 18:33N 55°06' E 014°41'0 0.0
2017-Jan-17 17:33N 55°06' E 014°41'0 0.0
2017-Jan-17 16:33N 55°06' E 014°41'2 2.0
2017-Jan-17 15:33N 55°04' E 014°41'0 0.0
2017-Jan-17 14:33N 55°04' E 014°41'0 0.0
2017-Jan-17 13:33N 55°04' E 014°41'2 2.0
2017-Jan-17 12:33N 55°06' E 014°41'0 0.0
2017-Jan-17 11:33N 55°06' E 014°41'0 0.0
2017-Jan-17 10:33N 55°06' E 014°41'0 0.0
2017-Jan-17 09:33N 55°06' E 014°41'0 0.0
2017-Jan-17 08:33N 55°06' E 014°41'0 0.0
2017-Jan-17 07:33N 55°06' E 014°41'1 1.3
2017-Jan-17 06:33N 55°05' E 014°41'1 0.7
2017-Jan-17 05:33N 55°04' E 014°41'0 0.0
2017-Jan-17 04:33N 55°04' E 014°41'0 0.0
2017-Jan-17 03:33N 55°04' E 014°41'2 1.9
2017-Jan-17 02:33N 55°06' E 014°41'0 0.0
2017-Jan-17 01:33N 55°06' E 014°41'1 0.9
2017-Jan-17 00:33N 55°05' E 014°41'1 1.2
2017-Jan-16 23:33N 55°04' E 014°41'0 0.0
2017-Jan-16 22:33N 55°04' E 014°41'0 0.0
2017-Jan-16 21:33N 55°04' E 014°41'0 0.0
2017-Jan-16 20:33N 55°04' E 014°41'2 1.9
2017-Jan-16 19:34N 55°06' E 014°41'0 0.0
2017-Jan-16 18:33N 55°06' E 014°41'0 0.0
2017-Jan-16 17:33N 55°06' E 014°41'2 1.9
2017-Jan-16 16:33N 55°04' E 014°41'0 0.0
2017-Jan-16 15:33N 55°04' E 014°41'0 0.0
2017-Jan-16 14:33N 55°04' E 014°41'0 0.0
2017-Jan-16 13:33N 55°04' E 014°41'2 1.8
2017-Jan-16 12:33N 55°06' E 014°41'0 0.1
2017-Jan-16 11:33N 55°06' E 014°41'1 1.2
2017-Jan-16 10:33N 55°05' E 014°41'8 7.5
2017-Jan-16 09:33N 54°58' E 014°48'2 2.4
2017-Jan-16 08:33N 54°56' E 014°50'4 3.9
2017-Jan-16 07:33N 54°59' E 014°46'7 7.1
2017-Jan-16 06:33N 55°06' E 014°41'0 0.0
2017-Jan-16 05:33N 55°06' E 014°41'0 0.0
2017-Jan-16 04:33N 55°06' E 014°41'0 0.0
2017-Jan-16 03:33N 55°06' E 014°41'0 0.0
2017-Jan-16 02:33N 55°06' E 014°41'0 0.0
2017-Jan-16 01:33N 55°06' E 014°41'0 0.0
2017-Jan-16 00:33N 55°06' E 014°41'0 0.0
2017-Jan-15 23:33N 55°06' E 014°41'0 0.0
2017-Jan-15 22:33N 55°06' E 014°41'0 0.0
2017-Jan-15 21:33N 55°06' E 014°41'0 0.0
2017-Jan-15 20:33N 55°06' E 014°41'0 0.0
2017-Jan-15 19:33N 55°06' E 014°41'0 0.0
2017-Jan-15 18:33N 55°06' E 014°41'0 0.0
2017-Jan-15 17:33N 55°06' E 014°41'0 0.1
2017-Jan-15 16:33N 55°06' E 014°41'6 6.1
2017-Jan-15 15:33N 54°60' E 014°44'5 4.9
2017-Jan-15 14:33N 54°56' E 014°50'2 2.0
2017-Jan-15 13:33N 54°58' E 014°48'8 8.0
2017-Jan-15 12:33N 55°05' E 014°41'1 1.2
2017-Jan-15 11:33N 55°06' E 014°41'0 0.0
2017-Jan-15 10:33N 55°06' E 014°41'6 5.8
2017-Jan-15 09:33N 55°00' E 014°44'5 5.4
2017-Jan-15 08:33N 54°56' E 014°50'1 0.8
2017-Jan-15 07:33N 54°57' E 014°49'8 8.1
2017-Jan-15 06:33N 55°04' E 014°42'2 2.1
2017-Jan-15 05:33N 55°06' E 014°41'0 0.0
2017-Jan-15 04:33N 55°06' E 014°41'0 0.0
2017-Jan-15 03:33N 55°06' E 014°41'0 0.0
2017-Jan-15 02:33N 55°06' E 014°41'0 0.0
2017-Jan-15 01:33N 55°06' E 014°41'0 0.0
2017-Jan-15 00:33N 55°06' E 014°41'0 0.0
2017-Jan-14 23:33N 55°06' E 014°41'0 0.0
2017-Jan-14 22:33N 55°06' E 014°41'0 0.0
2017-Jan-14 21:33N 55°06' E 014°41'0 0.0
2017-Jan-14 20:33N 55°06' E 014°41'0 0.0
2017-Jan-14 19:33N 55°06' E 014°41'0 0.0
2017-Jan-14 18:33N 55°06' E 014°41'0 0.0
2017-Jan-14 17:33N 55°06' E 014°41'4 3.8
2017-Jan-14 16:33N 55°02' E 014°42'6 6.2
2017-Jan-14 15:33N 54°57' E 014°48'1 1.3
2017-Jan-14 14:33N 54°56' E 014°50'2 1.7
2017-Jan-14 13:33N 54°58' E 014°48'8 7.6
2017-Jan-14 12:33N 55°04' E 014°42'2 1.7
2017-Jan-14 11:33N 55°06' E 014°41'0 0.0
2017-Jan-14 10:33N 55°06' E 014°41'6 5.6
2017-Jan-14 09:33N 55°01' E 014°44'6 5.6
2017-Jan-14 08:33N 54°56' E 014°50'1 1.3
2017-Jan-14 07:33N 54°57' E 014°49'8 8.0
2017-Jan-14 06:33N 55°04' E 014°42'2 1.8
2017-Jan-14 05:33N 55°06' E 014°41'0 0.0
2017-Jan-14 04:33N 55°06' E 014°41'0 0.0
2017-Jan-14 03:33N 55°06' E 014°41'0 0.0
2017-Jan-13 23:33N 55°06' E 014°41'0 0.0
2017-Jan-13 22:33N 55°06' E 014°41'0 0.0
2017-Jan-13 21:33N 55°06' E 014°41'0 0.0
2017-Jan-13 20:33N 55°06' E 014°41'0 0.0
2017-Jan-13 19:33N 55°06' E 014°41'0 0.0
2017-Jan-13 18:33N 55°06' E 014°41'0 0.0
2017-Jan-13 17:33N 55°06' E 014°41'4 3.8
2017-Jan-13 16:33N 55°02' E 014°41'7 6.6
2017-Jan-13 15:33N 54°58' E 014°50'1 0.8
2017-Jan-13 14:33N 54°57' E 014°51'5 5.2
2017-Jan-13 13:33N 55°00' E 014°44'6 5.7
2017-Jan-13 12:33N 55°06' E 014°41'0 0.0
2017-Jan-13 11:33N 55°06' E 014°41'0 0.0
2017-Jan-13 10:34N 55°06' E 014°41'6 6.2
2017-Jan-13 09:33N 55°00' E 014°45'4 4.5
2017-Jan-13 08:33N 54°57' E 014°50'4 3.6
2017-Jan-13 07:33N 55°00' E 014°47'7 6.5
2017-Jan-13 06:33N 55°06' E 014°41'0 0.3
2017-Jan-13 05:33N 55°06' E 014°41'0 0.0
2017-Jan-13 04:33N 55°06' E 014°41'0 0.0
2017-Jan-13 03:33N 55°06' E 014°41'0 0.0
2017-Jan-13 02:33N 55°06' E 014°41'0 0.0
2017-Jan-13 01:33N 55°06' E 014°41'0 0.0
2017-Jan-13 00:33N 55°06' E 014°41'0 0.0
2017-Jan-12 23:33N 55°06' E 014°41'0 0.0
2017-Jan-12 22:33N 55°06' E 014°41'0 0.0
2017-Jan-12 21:33N 55°06' E 014°41'0 0.0
2017-Jan-12 20:33N 55°06' E 014°41'0 0.0
2017-Jan-12 19:33N 55°06' E 014°41'0 0.0
2017-Jan-12 18:33N 55°06' E 014°41'0 0.0
2017-Jan-12 17:33N 55°06' E 014°41'0 0.0
2017-Jan-12 16:33N 55°06' E 014°41'0 0.0
2017-Jan-12 15:33N 55°06' E 014°41'0 0.0
2017-Jan-12 14:33N 55°06' E 014°41'0 0.0
2017-Jan-12 13:33N 55°06' E 014°41'0 0.0
2017-Jan-12 12:33N 55°06' E 014°41'0 0.0
2017-Jan-12 11:33N 55°06' E 014°41'0 0.0
2017-Jan-12 10:33N 55°06' E 014°41'0 0.0
2017-Jan-12 09:33N 55°06' E 014°41'0 0.0
2017-Jan-12 08:33N 55°06' E 014°41'0 0.0
2017-Jan-12 07:33N 55°06' E 014°41'0 0.0
2017-Jan-12 06:33N 55°06' E 014°41'0 0.0
2017-Jan-12 05:33N 55°06' E 014°41'0 0.0
2017-Jan-12 04:33N 55°06' E 014°41'0 0.0
2017-Jan-12 03:33N 55°06' E 014°41'0 0.0
2017-Jan-12 02:33N 55°06' E 014°41'0 0.0
2017-Jan-12 01:33N 55°06' E 014°41'0 0.0
2017-Jan-12 00:33N 55°06' E 014°41'0 0.0
2017-Jan-11 23:33N 55°06' E 014°41'0 0.0
2017-Jan-11 22:33N 55°06' E 014°41'0 0.0
2017-Jan-11 21:33N 55°06' E 014°41'0 0.0
2017-Jan-11 20:33N 55°06' E 014°41'0 0.0
2017-Jan-11 19:33N 55°06' E 014°41'0 0.0
2017-Jan-11 18:33N 55°06' E 014°41'0 0.0
2017-Jan-11 17:33N 55°06' E 014°41'0 0.0
2017-Jan-11 16:33N 55°06' E 014°41'0 0.0
2017-Jan-11 15:33N 55°06' E 014°41'0 0.0
2017-Jan-11 14:33N 55°06' E 014°41'0 0.0
2017-Jan-11 13:33N 55°06' E 014°41'0 0.0
2017-Jan-11 12:33N 55°06' E 014°41'0 0.0
2017-Jan-11 11:34N 55°06' E 014°41'0 0.0
2017-Jan-11 10:33N 55°06' E 014°41'0 0.0
2017-Jan-11 09:33N 55°06' E 014°41'0 0.0
2017-Jan-11 08:34N 55°06' E 014°41'0 0.0
2017-Jan-11 07:33N 55°06' E 014°41'0 0.0
2017-Jan-11 06:33N 55°06' E 014°41'0 0.0
2017-Jan-11 05:33N 55°06' E 014°41'0 0.0
2017-Jan-11 04:33N 55°06' E 014°41'0 0.0
2017-Jan-11 03:33N 55°06' E 014°41'0 0.0
2017-Jan-11 02:33N 55°06' E 014°41'0 0.0
2017-Jan-11 01:33N 55°06' E 014°41'0 0.0
2017-Jan-11 00:34N 55°06' E 014°41'0 0.0
2017-Jan-10 23:33N 55°06' E 014°41'0 0.0
2017-Jan-10 22:33N 55°06' E 014°41'0 0.0
2017-Jan-10 21:34N 55°06' E 014°41'0 0.0
2017-Jan-10 20:34N 55°06' E 014°41'0 0.0
2017-Jan-10 19:33N 55°06' E 014°41'0 0.0
2017-Jan-10 18:33N 55°06' E 014°41'0 0.0
2017-Jan-10 17:34N 55°06' E 014°41'0 0.0
2017-Jan-10 16:33N 55°06' E 014°41'0 0.0
2017-Jan-10 15:33N 55°06' E 014°41'0 0.0
2017-Jan-10 14:33N 55°06' E 014°41'0 0.0
2017-Jan-10 13:33N 55°06' E 014°41'0 0.0
2017-Jan-10 12:33N 55°06' E 014°41'0 0.0
2017-Jan-10 11:33N 55°06' E 014°41'0 0.0
2017-Jan-10 10:33N 55°06' E 014°41'0 0.0
2017-Jan-10 09:33N 55°06' E 014°41'0 0.0
2017-Jan-10 08:34N 55°06' E 014°41'0 0.0
2017-Jan-10 07:33N 55°06' E 014°41'0 0.0
2017-Jan-10 06:33N 55°06' E 014°41'0 0.0
2017-Jan-10 05:34N 55°06' E 014°41'0 0.0
2017-Jan-10 04:33N 55°06' E 014°41'0 0.0
2017-Jan-10 03:34N 55°06' E 014°41'0 0.0
2017-Jan-10 02:33N 55°06' E 014°41'0 0.0
2017-Jan-10 01:33N 55°06' E 014°41'0 0.0
2017-Jan-10 00:33N 55°06' E 014°41'0 0.0
2017-Jan-09 23:33N 55°06' E 014°41'0 0.0
2017-Jan-09 22:34N 55°06' E 014°41'0 0.0
2017-Jan-09 21:33N 55°06' E 014°41'0 0.0
2017-Jan-09 20:34N 55°06' E 014°41'0 0.0
2017-Jan-09 19:33N 55°06' E 014°41'0 0.0
2017-Jan-09 18:33N 55°06' E 014°41'0 0.0
2017-Jan-09 17:33N 55°06' E 014°41'1 1.1
2017-Jan-09 16:33N 55°05' E 014°40'2 2.3
2017-Jan-09 15:33N 55°03' E 014°40'0 0.0
2017-Jan-09 14:34N 55°03' E 014°40'0 0.1
2017-Jan-09 13:33N 55°03' E 014°41'3 3.3
2017-Jan-09 12:33N 55°06' E 014°41'0 0.0
2017-Jan-09 11:34N 55°06' E 014°41'1 0.7
2017-Jan-09 10:33N 55°05' E 014°41'3 2.6
2017-Jan-09 09:33N 55°03' E 014°41'0 0.0
2017-Jan-09 08:33N 55°03' E 014°41'0 0.0
2017-Jan-09 07:34N 55°03' E 014°41'3 3.1
2017-Jan-09 06:33N 55°06' E 014°41'0 0.1
2017-Jan-09 05:33N 55°06' E 014°41'0 0.0
2017-Jan-09 04:33N 55°06' E 014°41'0 0.0
2017-Jan-09 03:33N 55°06' E 014°41'0 0.0
2017-Jan-09 02:33N 55°06' E 014°41'0 0.0
2017-Jan-09 01:33N 55°06' E 014°41'0 0.0
2017-Jan-09 00:33N 55°06' E 014°41'0 0.0
2017-Jan-08 23:33N 55°06' E 014°41'0 0.0
2017-Jan-08 22:33N 55°06' E 014°41'0 0.0
2017-Jan-08 21:33N 55°06' E 014°41'0 0.0
2017-Jan-08 20:33N 55°06' E 014°41'0 0.0
2017-Jan-08 19:33N 55°06' E 014°41'0 0.0
2017-Jan-08 18:33N 55°06' E 014°41'0 0.0
2017-Jan-08 17:33N 55°06' E 014°41'0 0.0
2017-Jan-08 16:34N 55°06' E 014°41'0 0.0
2017-Jan-08 15:34N 55°06' E 014°41'2 1.9
2017-Jan-08 14:34N 55°04' E 014°41'0 0.0
2017-Jan-08 13:33N 55°04' E 014°41'0 0.0
2017-Jan-08 12:33N 55°04' E 014°41'0 0.0
2017-Jan-08 11:34N 55°04' E 014°41'2 1.9
2017-Jan-08 10:33N 55°06' E 014°41'0 0.0
2017-Jan-08 09:33N 55°06' E 014°41'2 2.0
2017-Jan-08 08:33N 55°04' E 014°41'0 0.0
2017-Jan-08 07:33N 55°04' E 014°41'0 0.0
2017-Jan-08 06:34N 55°04' E 014°41'2 1.9
2017-Jan-08 05:33N 55°06' E 014°41'0 0.0
2017-Jan-08 04:33N 55°06' E 014°41'0 0.0
2017-Jan-08 03:34N 55°06' E 014°41'0 0.0
2017-Jan-08 02:34N 55°06' E 014°41'0 0.0
2017-Jan-08 01:33N 55°06' E 014°41'0 0.0
2017-Jan-08 00:33N 55°06' E 014°41'0 0.0
2017-Jan-07 23:33N 55°06' E 014°41'0 0.0
2017-Jan-07 22:33N 55°06' E 014°41'0 0.0
2017-Jan-07 21:33N 55°06' E 014°41'0 0.0
2017-Jan-07 20:33N 55°06' E 014°41'0 0.0
2017-Jan-07 19:33N 55°06' E 014°41'0 0.0
2017-Jan-07 18:34N 55°06' E 014°41'  

Dump ship's entire track history